Wetterstation Vordersexau
Wetterdaten: Woche 12.10.15 - 18.10.15 (KW42)
Datum Zeit Temp. A. Feuchte A. Luftdruck Regen Wind Richtung Taupunkt Windchill Windben
12.10.2015 00:00 9,3 C 74 % 1010,6 hPa 0,0 l/m 0,0 km/h O-SO 4,9 C 9,3 C 0,0 km/h
12.10.2015 01:00 6,9 C 77 % 1010,6 hPa 0,0 l/m 0,0 km/h SO 3,2 C 6,9 C 0,0 km/h
12.10.2015 02:00 5,5 C 81 % 1010,9 hPa 0,0 l/m 0,0 km/h SO 2,5 C 5,5 C 0,0 km/h
12.10.2015 03:00 5,1 C 83 % 1011,1 hPa 0,0 l/m 0,0 km/h NO 2,5 C 5,1 C 0,0 km/h
12.10.2015 04:00 4,9 C 86 % 1010,9 hPa 0,0 l/m 0,0 km/h N-NO 2,8 C 4,9 C 0,0 km/h
12.10.2015 05:00 5,1 C 86 % 1011,3 hPa 0,0 l/m 0,0 km/h W 3,0 C 5,1 C 0,0 km/h
12.10.2015 06:00 3,8 C 86 % 1011,6 hPa 0,0 l/m 0,0 km/h W 1,7 C 3,8 C 0,0 km/h
12.10.2015 07:00 3,3 C 87 % 1012,0 hPa 0,0 l/m 0,0 km/h W 1,3 C 3,3 C 0,0 km/h
12.10.2015 08:00 3,4 C 86 % 1012,3 hPa 0,0 l/m 0,0 km/h W 1,3 C 3,4 C 0,0 km/h
12.10.2015 09:00 6,4 C 86 % 1012,8 hPa 0,0 l/m 0,0 km/h W-SW 4,2 C 6,4 C 0,0 km/h
12.10.2015 10:00 10,3 C 79 % 1012,8 hPa 0,0 l/m 0,0 km/h N-NO 6,8 C 10,3 C 0,0 km/h
12.10.2015 11:00 14,9 C 63 % 1012,8 hPa 0,0 l/m 0,0 km/h W 7,9 C 14,9 C 0,0 km/h
12.10.2015 12:00 16,2 C 60 % 1012,8 hPa 0,0 l/m 0,0 km/h NW 8,4 C 16,2 C 0,0 km/h
12.10.2015 13:00 14,8 C 61 % 1012,3 hPa 0,0 l/m 0,0 km/h W 7,4 C 14,8 C 0,0 km/h
12.10.2015 14:00 17,3 C 58 % 1011,6 hPa 0,0 l/m 0,0 km/h W 9,0 C 17,3 C 0,0 km/h
12.10.2015 15:00 16,6 C 59 % 1011,4 hPa 0,0 l/m 0,0 km/h W-NW 8,6 C 16,6 C 0,0 km/h
12.10.2015 16:00 16,8 C 55 % 1011,6 hPa 0,0 l/m 0,0 km/h W-NW 7,7 C 16,8 C 0,0 km/h
12.10.2015 17:00 13,6 C 63 % 1012,1 hPa 0,0 l/m 0,0 km/h N-NO 6,7 C 13,6 C 0,0 km/h
12.10.2015 18:00 12,3 C 66 % 1012,0 hPa 0,0 l/m 0,0 km/h N-NO 6,1 C 12,3 C 0,0 km/h
12.10.2015 19:00 8,6 C 74 % 1012,1 hPa 0,0 l/m 0,0 km/h N-NO 4,2 C 8,6 C 0,0 km/h
12.10.2015 20:00 7,5 C 78 % 1012,3 hPa 0,0 l/m 0,0 km/h N-NO 3,9 C 7,5 C 0,0 km/h
12.10.2015 21:00 7,1 C 81 % 1012,3 hPa 0,0 l/m 0,0 km/h N-NO 4,1 C 7,1 C 0,0 km/h
12.10.2015 22:00 6,6 C 83 % 1012,2 hPa 0,0 l/m 0,0 km/h NO 3,9 C 6,6 C 0,0 km/h
12.10.2015 23:00 6,2 C 84 % 1012,0 hPa 0,0 l/m 0,0 km/h NO 3,7 C 6,2 C 0,0 km/h
13.10.2015 00:00 5,6 C 85 % 1012,2 hPa 0,0 l/m 0,0 km/h NO 3,3 C 5,6 C 0,0 km/h
13.10.2015 01:00 5,6 C 86 % 1012,1 hPa 0,0 l/m 0,0 km/h NO 3,4 C 5,6 C 0,0 km/h
13.10.2015 02:00 5,7 C 86 % 1011,7 hPa 0,0 l/m 0,0 km/h N-NO 3,5 C 5,7 C 0,0 km/h
13.10.2015 03:00 4,6 C 86 % 1011,5 hPa 0,0 l/m 0,0 km/h N-NO 2,5 C 4,6 C 0,0 km/h
13.10.2015 04:00 4,1 C 86 % 1011,2 hPa 0,0 l/m 0,0 km/h N-NO 2,0 C 4,1 C 0,0 km/h
13.10.2015 05:00 4,9 C 86 % 1010,8 hPa 0,0 l/m 0,0 km/h N-NO 2,8 C 4,9 C 0,0 km/h
13.10.2015 06:00 4,9 C 86 % 1010,9 hPa 0,0 l/m 0,0 km/h N-NO 2,8 C 4,9 C 0,0 km/h
13.10.2015 07:00 5,8 C 86 % 1010,9 hPa 0,0 l/m 0,0 km/h N-NO 3,6 C 5,8 C 0,0 km/h
13.10.2015 08:00 6,1 C 85 % 1011,3 hPa 0,0 l/m 0,0 km/h N-NO 3,8 C 6,1 C 0,0 km/h
13.10.2015 09:00 6,8 C 85 % 1011,4 hPa 0,0 l/m 0,0 km/h NW 4,5 C 6,8 C 0,0 km/h
13.10.2015 10:00 8,1 C 86 % 1011,3 hPa 0,0 l/m 0,0 km/h W-NW 5,9 C 8,1 C 0,0 km/h
13.10.2015 11:00 9,1 C 85 % 1011,3 hPa 0,0 l/m 0,0 km/h NW 6,7 C 9,1 C 0,0 km/h
13.10.2015 12:00 9,4 C 83 % 1011,4 hPa 0,0 l/m 0,0 km/h W-NW 6,7 C 9,4 C 0,0 km/h
13.10.2015 13:00 10,5 C 80 % 1011,3 hPa 0,0 l/m 0,0 km/h S-SO 7,2 C 10,5 C 0,0 km/h
13.10.2015 14:00 11,6 C 77 % 1011,3 hPa 0,0 l/m 0,0 km/h SO 7,7 C 11,6 C 0,0 km/h
13.10.2015 15:00 13,3 C 75 % 1010,9 hPa 0,0 l/m 0,0 km/h W-NW 9,0 C 13,3 C 0,0 km/h
13.10.2015 16:00 11,7 C 74 % 1011,2 hPa 0,0 l/m 0,0 km/h N-NO 7,2 C 11,7 C 0,0 km/h
13.10.2015 17:00 10,9 C 77 % 1011,2 hPa 0,0 l/m 0,0 km/h W-SW 7,0 C 10,9 C 0,0 km/h
13.10.2015 18:00 9,9 C 80 % 1011,7 hPa 0,0 l/m 0,0 km/h W-NW 6,6 C 9,9 C 0,0 km/h
13.10.2015 19:00 8,8 C 82 % 1012,6 hPa 0,0 l/m 0,0 km/h W-NW 5,9 C 8,8 C 0,0 km/h
13.10.2015 20:00 7,8 C 84 % 1013,3 hPa 0,0 l/m 0,0 km/h W 5,3 C 7,8 C 0,0 km/h
13.10.2015 21:00 7,1 C 85 % 1013,7 hPa 0,4 l/m 0,0 km/h SO 4,8 C 7,1 C 0,0 km/h
13.10.2015 22:00 6,9 C 86 % 1014,1 hPa 0,0 l/m 0,0 km/h SO 4,7 C 6,9 C 0,0 km/h
13.10.2015 23:00 6,8 C 86 % 1014,1 hPa 0,0 l/m 0,0 km/h O-SO 4,6 C 6,8 C 0,0 km/h
14.10.2015 00:00 6,5 C 86 % 1014,0 hPa 0,0 l/m 0,0 km/h O-SO 4,3 C 6,5 C 0,0 km/h
14.10.2015 01:00 5,8 C 87 % 1014,0 hPa 0,0 l/m 0,0 km/h O-SO 3,8 C 5,8 C 0,0 km/h
14.10.2015 02:00 5,9 C 87 % 1014,0 hPa 0,0 l/m 0,0 km/h O 3,9 C 5,9 C 0,0 km/h
14.10.2015 03:00 6,2 C 86 % 1014,0 hPa 0,0 l/m 0,0 km/h S-SW 4,0 C 6,2 C 0,0 km/h
14.10.2015 04:00 6,3 C 86 % 1013,5 hPa 0,0 l/m 0,0 km/h S-SW 4,1 C 6,3 C 0,0 km/h
14.10.2015 05:00 6,2 C 87 % 1013,5 hPa 0,0 l/m 0,0 km/h S-SW 4,2 C 6,2 C 0,0 km/h
14.10.2015 06:00 6,1 C 87 % 1013,3 hPa 0,0 l/m 0,0 km/h S-SW 4,1 C 6,1 C 0,0 km/h
14.10.2015 07:00 5,9 C 87 % 1013,5 hPa 0,0 l/m 0,0 km/h S-SW 3,9 C 5,9 C 0,0 km/h
14.10.2015 08:00 6,1 C 87 % 1013,6 hPa 0,0 l/m 0,0 km/h S-SW 4,1 C 6,1 C 0,0 km/h
14.10.2015 09:00 6,4 C 87 % 1013,6 hPa 0,0 l/m 0,0 km/h N 4,4 C 6,4 C 0,0 km/h
14.10.2015 10:00 6,4 C 87 % 1013,6 hPa 0,0 l/m 0,0 km/h N-NO 4,4 C 6,4 C 0,0 km/h
14.10.2015 11:00 7,8 C 84 % 1013,4 hPa 0,0 l/m 0,0 km/h N-NO 5,3 C 7,8 C 0,0 km/h
14.10.2015 12:00 8,9 C 81 % 1013,2 hPa 0,0 l/m 0,0 km/h N-NO 5,8 C 8,9 C 0,0 km/h
14.10.2015 13:00 9,4 C 77 % 1013,0 hPa 0,0 l/m 0,0 km/h N-NO 5,6 C 9,4 C 0,0 km/h
14.10.2015 14:00 9,5 C 74 % 1012,4 hPa 0,0 l/m 0,0 km/h N-NO 5,1 C 9,5 C 0,0 km/h
14.10.2015 15:00 9,0 C 74 % 1012,2 hPa 0,0 l/m 0,0 km/h N-NO 4,6 C 9,0 C 0,0 km/h
14.10.2015 16:00 8,2 C 77 % 1012,4 hPa 0,0 l/m 0,0 km/h N-NW 4,4 C 8,2 C 0,0 km/h
14.10.2015 17:00 6,9 C 80 % 1012,3 hPa 0,0 l/m 0,0 km/h N-NO 3,7 C 6,9 C 0,0 km/h
14.10.2015 18:00 6,4 C 82 % 1012,7 hPa 0,0 l/m 0,0 km/h N-NO 3,6 C 6,4 C 0,0 km/h
14.10.2015 19:00 6,0 C 83 % 1012,8 hPa 0,0 l/m 0,0 km/h N-NO 3,3 C 6,0 C 0,0 km/h
14.10.2015 20:00 5,6 C 84 % 1013,1 hPa 0,0 l/m 0,0 km/h N 3,1 C 5,6 C 0,0 km/h
14.10.2015 21:00 5,3 C 84 % 1013,1 hPa 0,0 l/m 0,0 km/h N 2,8 C 5,3 C 0,0 km/h
14.10.2015 22:00 5,2 C 84 % 1013,3 hPa 0,0 l/m 0,0 km/h N-NW 2,7 C 5,2 C 0,0 km/h
14.10.2015 23:00 5,2 C 84 % 1013,1 hPa 0,0 l/m 0,0 km/h N-NW 2,7 C 5,2 C 0,0 km/h
15.10.2015 00:00 5,1 C 84 % 1012,5 hPa 0,0 l/m 0,0 km/h W-NW 2,6 C 5,1 C 0,0 km/h
15.10.2015 01:00 4,7 C 86 % 1012,2 hPa 0,0 l/m 0,0 km/h W-NW 2,6 C 4,7 C 0,0 km/h
15.10.2015 02:00 4,5 C 87 % 1012,3 hPa 0,0 l/m 0,0 km/h W-NW 2,5 C 4,5 C 0,0 km/h
15.10.2015 03:00 4,2 C 87 % 1011,6 hPa 0,0 l/m 0,0 km/h W-NW 2,2 C 4,2 C 0,0 km/h
15.10.2015 04:00 3,9 C 87 % 1011,3 hPa 0,0 l/m 0,0 km/h W 1,9 C 3,9 C 0,0 km/h
15.10.2015 05:00 3,9 C 87 % 1011,3 hPa 0,0 l/m 0,0 km/h W 1,9 C 3,9 C 0,0 km/h
15.10.2015 06:00 3,9 C 87 % 1011,4 hPa 0,0 l/m 0,0 km/h W 1,9 C 3,9 C 0,0 km/h
15.10.2015 07:00 4,1 C 87 % 1010,9 hPa 0,0 l/m 0,0 km/h W 2,1 C 4,1 C 0,0 km/h
15.10.2015 08:00 4,2 C 87 % 1011,2 hPa 0,0 l/m 0,0 km/h W 2,2 C 4,2 C 0,0 km/h
15.10.2015 09:00 4,8 C 86 % 1011,4 hPa 0,4 l/m 0,0 km/h W 2,7 C 4,8 C 0,0 km/h
15.10.2015 10:00 5,7 C 86 % 1011,5 hPa 0,0 l/m 0,0 km/h W 3,5 C 5,7 C 0,0 km/h
15.10.2015 11:00 6,6 C 87 % 1011,6 hPa 0,0 l/m 0,0 km/h W 4,6 C 6,6 C 0,0 km/h
15.10.2015 12:00 7,3 C 87 % 1011,7 hPa 0,0 l/m 0,0 km/h W-NW 5,3 C 7,3 C 0,0 km/h
15.10.2015 13:00 7,5 C 86 % 1011,8 hPa 0,0 l/m 0,0 km/h N 5,3 C 7,5 C 0,0 km/h
15.10.2015 14:00 7,2 C 86 % 1011,8 hPa 0,0 l/m 0,0 km/h N-NW 5,0 C 7,2 C 0,0 km/h
15.10.2015 15:00 7,3 C 85 % 1011,7 hPa 0,0 l/m 0,0 km/h N-NO 4,9 C 7,3 C 0,0 km/h
15.10.2015 16:00 7,2 C 82 % 1011,7 hPa 0,0 l/m 0,0 km/h N-NW 4,3 C 7,2 C 0,0 km/h
15.10.2015 17:00 6,8 C 82 % 1012,1 hPa 0,0 l/m 0,0 km/h N-NO 3,9 C 6,8 C 0,0 km/h
15.10.2015 18:00 6,1 C 83 % 1012,7 hPa 0,0 l/m 0,0 km/h N-NO 3,4 C 6,1 C 0,0 km/h
15.10.2015 19:00 5,7 C 84 % 1013,1 hPa 0,0 l/m 0,0 km/h N-NO 3,2 C 5,7 C 0,0 km/h
15.10.2015 20:00 5,5 C 86 % 1013,4 hPa 0,0 l/m 0,0 km/h N-NO 3,3 C 5,5 C 0,0 km/h
15.10.2015 21:00 5,3 C 86 % 1014,0 hPa 0,0 l/m 0,0 km/h N-NO 3,2 C 5,3 C 0,0 km/h
15.10.2015 22:00 5,0 C 86 % 1014,7 hPa 0,0 l/m 0,0 km/h N-NO 2,9 C 5,0 C 0,0 km/h
15.10.2015 23:00 5,2 C 87 % 1014,8 hPa 0,0 l/m 0,0 km/h N-NO 3,2 C 5,2 C 0,0 km/h
16.10.2015 00:00 5,1 C 87 % 1014,7 hPa 0,0 l/m 0,0 km/h N-NO 3,1 C 5,1 C 0,0 km/h
16.10.2015 01:00 5,1 C 87 % 1014,5 hPa 0,0 l/m 0,0 km/h N-NO 3,1 C 5,1 C 0,0 km/h
16.10.2015 02:00 5,3 C 87 % 1014,7 hPa 0,0 l/m 0,0 km/h N-NO 3,3 C 5,3 C 0,0 km/h
16.10.2015 03:00 5,2 C 87 % 1014,7 hPa 0,0 l/m 0,0 km/h N-NO 3,2 C 5,2 C 0,0 km/h
16.10.2015 04:00 5,2 C 87 % 1015,0 hPa 0,0 l/m 0,0 km/h N-NO 3,2 C 5,2 C 0,0 km/h
16.10.2015 05:00 5,0 C 87 % 1015,0 hPa 0,0 l/m 0,0 km/h N-NO 3,0 C 5,0 C 0,0 km/h
16.10.2015 06:00 5,0 C 87 % 1015,0 hPa 0,0 l/m 0,0 km/h N-NO 3,0 C 5,0 C 0,0 km/h
16.10.2015 07:00 5,0 C 87 % 1015,2 hPa 0,0 l/m 0,0 km/h N-NO 3,0 C 5,0 C 0,0 km/h
16.10.2015 08:00 5,1 C 87 % 1015,7 hPa 0,0 l/m 0,0 km/h N-NO 3,1 C 5,1 C 0,0 km/h
16.10.2015 09:00 5,6 C 86 % 1015,9 hPa 0,0 l/m 0,0 km/h N-NO 3,4 C 5,6 C 0,0 km/h
16.10.2015 10:00 6,4 C 87 % 1016,2 hPa 0,0 l/m 0,0 km/h N-NO 4,4 C 6,4 C 0,0 km/h
16.10.2015 11:00 7,4 C 84 % 1016,3 hPa 0,0 l/m 0,0 km/h N 4,9 C 7,4 C 0,0 km/h
16.10.2015 12:00 8,0 C 80 % 1016,2 hPa 0,0 l/m 0,0 km/h N-NW 4,8 C 8,0 C 0,0 km/h
16.10.2015 13:00 9,0 C 76 % 1015,9 hPa 0,0 l/m 0,0 km/h W 5,0 C 9,0 C 0,0 km/h
16.10.2015 14:00 10,9 C 69 % 1015,7 hPa 0,0 l/m 0,0 km/h NW 5,4 C 10,9 C 0,0 km/h
16.10.2015 15:00 9,9 C 69 % 1015,8 hPa 0,0 l/m 0,0 km/h W 4,5 C 9,9 C 0,0 km/h
16.10.2015 16:00 10,3 C 67 % 1015,8 hPa 0,0 l/m 0,0 km/h W 4,4 C 10,3 C 0,0 km/h
16.10.2015 17:00 11,5 C 63 % 1015,9 hPa 0,0 l/m 0,0 km/h W 4,7 C 11,5 C 0,0 km/h
16.10.2015 18:00 7,2 C 71 % 1016,1 hPa 0,0 l/m 0,0 km/h W 2,3 C 7,2 C 0,0 km/h
16.10.2015 19:00 5,2 C 77 % 1016,4 hPa 0,0 l/m 0,0 km/h N-NW 1,5 C 5,2 C 0,0 km/h
16.10.2015 20:00 5,1 C 82 % 1016,9 hPa 0,0 l/m 0,0 km/h N-NW 2,3 C 5,1 C 0,0 km/h
16.10.2015 21:00 5,2 C 83 % 1017,1 hPa 0,0 l/m 0,0 km/h N-NW 2,6 C 5,2 C 0,0 km/h
16.10.2015 22:00 5,2 C 84 % 1017,0 hPa 0,0 l/m 0,0 km/h O-NO 2,7 C 5,2 C 0,0 km/h
16.10.2015 23:00 5,4 C 85 % 1016,8 hPa 0,0 l/m 0,0 km/h O-NO 3,1 C 5,4 C 0,0 km/h
17.10.2015 00:00 5,3 C 85 % 1016,9 hPa 0,0 l/m 0,0 km/h O-NO 3,0 C 5,3 C 0,0 km/h
17.10.2015 01:00 5,0 C 86 % 1016,4 hPa 0,0 l/m 0,0 km/h O-NO 2,9 C 5,0 C 0,0 km/h
17.10.2015 02:00 5,0 C 86 % 1016,5 hPa 0,0 l/m 0,0 km/h O-NO 2,9 C 5,0 C 0,0 km/h
17.10.2015 03:00 4,4 C 86 % 1016,4 hPa 0,0 l/m 0,0 km/h O-SO 2,3 C 4,4 C 0,0 km/h
17.10.2015 04:00 4,4 C 86 % 1016,2 hPa 0,0 l/m 0,0 km/h O-SO 2,3 C 4,4 C 0,0 km/h
17.10.2015 05:00 4,5 C 87 % 1015,8 hPa 0,0 l/m 0,0 km/h O 2,5 C 4,5 C 0,0 km/h
17.10.2015 06:00 4,3 C 87 % 1015,8 hPa 0,0 l/m 0,0 km/h O 2,3 C 4,3 C 0,0 km/h
17.10.2015 07:00 4,4 C 87 % 1015,8 hPa 0,0 l/m 0,0 km/h O 2,4 C 4,4 C 0,0 km/h
17.10.2015 08:00 4,5 C 87 % 1015,9 hPa 0,0 l/m 0,0 km/h O 2,5 C 4,5 C 0,0 km/h
17.10.2015 09:00 5,3 C 87 % 1016,3 hPa 0,0 l/m 0,0 km/h O 3,3 C 5,3 C 0,0 km/h
17.10.2015 10:00 6,8 C 86 % 1016,1 hPa 0,0 l/m 0,0 km/h W 4,6 C 6,8 C 0,0 km/h
17.10.2015 11:00 7,9 C 81 % 1016,3 hPa 0,0 l/m 0,0 km/h W 4,8 C 7,9 C 0,0 km/h
17.10.2015 12:00 8,3 C 77 % 1016,0 hPa 0,0 l/m 0,0 km/h W 4,5 C 8,3 C 0,0 km/h
17.10.2015 13:00 9,3 C 73 % 1015,8 hPa 0,0 l/m 0,0 km/h W 4,7 C 9,3 C 0,0 km/h
17.10.2015 14:00 8,3 C 75 % 1015,5 hPa 0,0 l/m 0,0 km/h W-SW 4,1 C 8,3 C 0,0 km/h
17.10.2015 15:00 7,6 C 76 % 1015,5 hPa 0,0 l/m 0,0 km/h S-SW 3,6 C 7,6 C 0,0 km/h
17.10.2015 16:00 7,0 C 79 % 1015,6 hPa 0,0 l/m 0,0 km/h S-SW 3,6 C 7,0 C 0,0 km/h
17.10.2015 17:00 6,6 C 81 % 1015,7 hPa 0,0 l/m 0,0 km/h SO 3,6 C 6,6 C 0,0 km/h
17.10.2015 18:00 5,9 C 84 % 1015,9 hPa 0,0 l/m 0,0 km/h SO 3,4 C 5,9 C 0,0 km/h
17.10.2015 19:00 5,5 C 85 % 1015,7 hPa 0,0 l/m 0,0 km/h SO 3,2 C 5,5 C 0,0 km/h
17.10.2015 20:00 5,2 C 86 % 1015,9 hPa 0,0 l/m 0,0 km/h SO 3,1 C 5,2 C 0,0 km/h
17.10.2015 21:00 5,2 C 86 % 1015,5 hPa 0,0 l/m 0,0 km/h SO 3,1 C 5,2 C 0,0 km/h
17.10.2015 22:00 4,9 C 87 % 1015,5 hPa 0,0 l/m 0,0 km/h SO 2,9 C 4,9 C 0,0 km/h
17.10.2015 23:00 4,9 C 87 % 1015,5 hPa 0,0 l/m 0,0 km/h SO 2,9 C 4,9 C 0,0 km/h
18.10.2015 00:00 4,9 C 87 % 1015,4 hPa 0,0 l/m 0,0 km/h SO 2,9 C 4,9 C 0,0 km/h
18.10.2015 01:00 4,9 C 87 % 1015,4 hPa 0,0 l/m 0,0 km/h SO 2,9 C 4,9 C 0,0 km/h
18.10.2015 02:00 5,0 C 87 % 1015,5 hPa 0,0 l/m 0,0 km/h SO 3,0 C 5,0 C 0,0 km/h
18.10.2015 03:00 5,1 C 87 % 1015,5 hPa 0,0 l/m 0,0 km/h SO 3,1 C 5,1 C 0,0 km/h
18.10.2015 04:00 5,1 C 87 % 1015,5 hPa 0,0 l/m 0,0 km/h SO 3,1 C 5,1 C 0,0 km/h
18.10.2015 05:00 5,2 C 87 % 1015,0 hPa 0,0 l/m 0,0 km/h SO 3,2 C 5,2 C 0,0 km/h
18.10.2015 06:00 4,9 C 87 % 1014,8 hPa 0,0 l/m 0,0 km/h SO 2,9 C 4,9 C 0,0 km/h
18.10.2015 07:00 4,9 C 87 % 1014,7 hPa 0,0 l/m 0,0 km/h SO 2,9 C 4,9 C 0,0 km/h
18.10.2015 08:00 5,3 C 86 % 1015,3 hPa 0,0 l/m 0,0 km/h O-NO 3,2 C 5,3 C 0,0 km/h
18.10.2015 09:00 6,3 C 87 % 1015,5 hPa 0,0 l/m 0,0 km/h W-NW 4,3 C 6,3 C 0,0 km/h
18.10.2015 10:00 6,9 C 87 % 1015,7 hPa 0,0 l/m 0,0 km/h W-NW 4,9 C 6,9 C 0,0 km/h
18.10.2015 11:00 9,1 C 85 % 1015,8 hPa 0,0 l/m 0,0 km/h W 6,7 C 9,1 C 0,0 km/h
18.10.2015 12:00 9,6 C 80 % 1016,0 hPa 0,0 l/m 0,0 km/h S 6,3 C 9,6 C 0,0 km/h
18.10.2015 13:00 14,5 C 70 % 1015,4 hPa 0,0 l/m 0,0 km/h S-SW 9,1 C 14,5 C 0,0 km/h
18.10.2015 14:00 13,9 C 66 % 1015,4 hPa 0,0 l/m 0,0 km/h W-NW 7,7 C 13,9 C 0,0 km/h
18.10.2015 15:00 12,8 C 65 % 1015,1 hPa 0,0 l/m 0,0 km/h W-NW 6,4 C 12,8 C 0,0 km/h
18.10.2015 16:00 11,6 C 67 % 1014,9 hPa 0,0 l/m 0,0 km/h N-NW 5,7 C 11,6 C 0,0 km/h
18.10.2015 17:00 10,4 C 70 % 1014,9 hPa 0,0 l/m 0,0 km/h N 5,2 C 10,4 C 0,0 km/h
18.10.2015 18:00 9,0 C 75 % 1015,1 hPa 0,0 l/m 0,0 km/h N-NO 4,8 C 9,0 C 0,0 km/h
18.10.2015 19:00 8,1 C 78 % 1015,3 hPa 0,0 l/m 0,0 km/h N-NO 4,5 C 8,1 C 0,0 km/h
18.10.2015 20:00 7,6 C 80 % 1015,6 hPa 0,0 l/m 0,0 km/h N-NO 4,4 C 7,6 C 0,0 km/h
18.10.2015 21:00 7,4 C 82 % 1015,9 hPa 0,0 l/m 0,0 km/h N-NO 4,5 C 7,4 C 0,0 km/h
18.10.2015 22:00 7,1 C 84 % 1016,3 hPa 0,0 l/m 0,0 km/h N-NO 4,6 C 7,1 C 0,0 km/h
18.10.2015 23:00 6,9 C 85 % 1016,6 hPa 0,0 l/m 0,0 km/h N-NO 4,6 C 6,9 C 0,0 km/h
Min-Datum _ 12.10.15 12.10.15 12.10.15 - 12.10.15 - 12.10.15 12.10.15 12.10.15
_ Min-Zeit 07:42 16:42 00:42 - 00:42 - 08:42 07:42 00:42
Minimum _ 3,3 C 55 % 1010,6 hPa - 0,0 km/h - 1,3 C 3,3 C 0,0 km/h
Max-Datum _ 12.10.15 12.10.15 16.10.15 13.10.15 12.10.15 - 18.10.15 12.10.15 12.10.15
_ Max-Zeit 14:42 07:42 21:42 21:42 00:42 - 13:42 14:42 00:42
Maximum _ 17,3 C 87 % 1017,1 hPa 0,4 l/m 0,0 km/h
O-SO
- 9,1 C 17,3 C 0,0 km/h
O-SO
Durchschnitt _ 7,1 C 82 % 1013,7 hPa #0,8 l/m 0,0 km/h N-NO 4,1 C 7,1 C 0,0 km/h
www.sexauwetter.de